createdAt,value
2018-06-04T00:00:44.739Z,100982.33
2018-06-04T00:03:11.869Z,100971.52
2018-06-04T00:05:38.875Z,100980.77
2018-06-04T00:08:05.966Z,100976.52
2018-06-04T00:10:32.994Z,100983.79
2018-06-04T00:13:00.090Z,100982.19
2018-06-04T00:15:27.110Z,100987.11
2018-06-04T00:17:54.112Z,100984.46
2018-06-04T00:20:21.193Z,100988.09
2018-06-04T00:22:48.278Z,100985.49
2018-06-04T00:25:15.329Z,100986.32
2018-06-04T00:27:42.419Z,100980.06
2018-06-04T00:30:09.504Z,100980.91
2018-06-04T00:32:36.606Z,100978.64
2018-06-04T00:35:03.710Z,100978.18
2018-06-04T00:37:30.797Z,100983.25
2018-06-04T00:39:57.822Z,100980.38
2018-06-04T00:42:24.820Z,100981.47
2018-06-04T00:44:51.914Z,100980.81
2018-06-04T00:47:19.018Z,100979.77
2018-06-04T00:49:46.037Z,100973.99
2018-06-04T00:52:13.140Z,100974.14
2018-06-04T00:54:40.139Z,100966.45
2018-06-04T00:57:07.235Z,100960.27
2018-06-04T00:59:34.253Z,100954.11
2018-06-04T01:02:01.345Z,100956.98
2018-06-04T01:04:28.352Z,100958.00
2018-06-04T01:06:55.462Z,100960.73
2018-06-04T01:09:22.583Z,100960.28
2018-06-04T01:11:49.589Z,100955.36
2018-06-04T01:14:16.624Z,100949.17
2018-06-04T01:16:43.641Z,100946.32
2018-06-04T01:19:10.647Z,100943.51
2018-06-04T01:21:37.650Z,100943.41
2018-06-04T01:24:04.690Z,100942.28
2018-06-04T01:29:05.723Z,100942.73
2018-06-04T01:31:32.738Z,100937.80
2018-06-04T01:33:59.870Z,100937.25
2018-06-04T01:36:26.970Z,100938.58
2018-06-04T01:38:53.978Z,100934.66
2018-06-04T01:41:20.989Z,100931.94
2018-06-04T01:43:48.085Z,100934.19
2018-06-04T01:46:15.099Z,100931.66
2018-06-04T01:48:42.134Z,100921.99
2018-06-04T01:51:09.168Z,100917.06
2018-06-04T01:53:36.263Z,100921.95
2018-06-04T01:56:03.366Z,100918.19
2018-06-04T01:58:30.457Z,100918.42
2018-06-04T02:00:57.509Z,100918.14
2018-06-04T02:03:24.678Z,100913.99
2018-06-04T02:05:51.701Z,100908.48
2018-06-04T02:08:19.096Z,100903.02
2018-06-04T02:10:46.185Z,100901.81
2018-06-04T02:13:13.277Z,100903.08
2018-06-04T02:15:40.297Z,100899.62
2018-06-04T02:18:07.309Z,100897.41
2018-06-04T02:20:34.305Z,100906.50
2018-06-04T02:23:01.407Z,100904.97
2018-06-04T02:25:28.435Z,100904.34
2018-06-04T02:27:55.454Z,100910.35
2018-06-04T02:30:22.557Z,100901.63
2018-06-04T02:32:49.554Z,100902.09
2018-06-04T02:35:16.587Z,100905.56
2018-06-04T02:37:43.689Z,100904.70
2018-06-04T02:40:10.694Z,100895.76
2018-06-04T02:42:37.743Z,100896.97
2018-06-04T02:45:04.766Z,100891.05
2018-06-04T02:47:31.770Z,100889.70
2018-06-04T02:49:58.850Z,100891.50
2018-06-04T02:52:25.942Z,100886.30
2018-06-04T02:54:52.961Z,100883.55
2018-06-04T02:57:19.977Z,100878.98
2018-06-04T02:59:47.145Z,100877.04
2018-06-04T03:02:14.206Z,100875.91
2018-06-04T03:04:41.233Z,100881.30
2018-06-04T03:07:08.263Z,100875.56
2018-06-04T03:09:35.298Z,100876.77
2018-06-04T03:12:02.356Z,100878.77
2018-06-04T03:14:29.381Z,100879.57
2018-06-04T03:16:56.808Z,100883.78
2018-06-04T03:19:23.834Z,100880.63
2018-06-04T03:21:50.843Z,100882.11
2018-06-04T03:24:17.965Z,100880.63
2018-06-04T03:26:44.965Z,100875.64
2018-06-04T03:29:11.979Z,100878.09
2018-06-04T03:31:39.077Z,100875.10
2018-06-04T03:34:06.093Z,100872.30
2018-06-04T03:36:33.113Z,100874.42
2018-06-04T03:39:00.217Z,100875.28
2018-06-04T03:41:27.264Z,100871.76
2018-06-04T03:43:54.373Z,100873.52
2018-06-04T03:46:21.406Z,100865.78
2018-06-04T03:48:48.414Z,100865.78
2018-06-04T03:51:15.501Z,100862.89
2018-06-04T03:53:42.596Z,100868.72
2018-06-04T03:56:09.695Z,100861.17
2018-06-04T03:58:36.970Z,100861.17
2018-06-04T04:01:03.987Z,100859.05
2018-06-04T04:03:32.571Z,100859.05
2018-06-04T04:05:59.724Z,100859.45
2018-06-04T04:08:28.073Z,100854.79
2018-06-04T04:10:55.157Z,100851.98
2018-06-04T04:13:23.548Z,100850.98
2018-06-04T04:15:51.039Z,100849.77
2018-06-04T04:18:18.061Z,100852.75
2018-06-04T04:20:45.062Z,100851.21
2018-06-04T04:23:12.070Z,100846.64
2018-06-04T04:25:39.423Z,100850.55
2018-06-04T04:28:06.456Z,100849.28
2018-06-04T04:30:33.554Z,100856.38
2018-06-04T04:33:00.574Z,100852.58
2018-06-04T04:35:27.607Z,100851.36
2018-06-04T04:37:54.628Z,100855.56
2018-06-04T04:40:21.662Z,100856.16
2018-06-04T04:42:48.667Z,100855.23
2018-06-04T04:45:15.800Z,100856.09
2018-06-04T04:47:42.805Z,100853.34
2018-06-04T04:50:09.977Z,100851.71
2018-06-04T04:52:37.082Z,100851.48
2018-06-04T04:55:04.105Z,100856.77
2018-06-04T04:57:31.237Z,100861.70
2018-06-04T04:59:58.334Z,100860.22
2018-06-04T05:02:25.310Z,100859.49
2018-06-04T05:04:52.395Z,100850.55
2018-06-04T05:07:19.488Z,100854.24
2018-06-04T05:09:46.514Z,100852.98
2018-06-04T05:12:13.633Z,100850.04
2018-06-04T05:14:40.648Z,100842.63
2018-06-04T05:17:07.738Z,100847.02
2018-06-04T05:19:35.050Z,100848.50
2018-06-04T05:22:02.118Z,100840.64
2018-06-04T05:24:29.134Z,100842.16
2018-06-04T05:26:56.325Z,100839.14
2018-06-04T05:29:23.337Z,100837.36
2018-06-04T05:31:50.494Z,100840.63
2018-06-04T05:34:17.476Z,100840.63
2018-06-04T05:36:44.491Z,100838.55
2018-06-04T05:39:11.518Z,100835.28
2018-06-04T05:41:38.616Z,100833.66
2018-06-04T05:44:05.995Z,100836.67
2018-06-04T05:46:33.002Z,100839.77
2018-06-04T05:49:00.068Z,100840.55
2018-06-04T05:51:27.182Z,100835.61
2018-06-04T05:53:54.237Z,100838.35
2018-06-04T05:56:21.254Z,100841.06
2018-06-04T05:58:48.264Z,100837.13
2018-06-04T06:01:15.395Z,100841.11
2018-06-04T06:03:42.420Z,100839.39
2018-06-04T06:06:09.547Z,100838.17
2018-06-04T06:08:36.670Z,100837.72
2018-06-04T06:11:03.717Z,100839.92
2018-06-04T06:13:31.051Z,100834.45
2018-06-04T06:15:58.099Z,100834.38
2018-06-04T06:18:25.113Z,100830.33
2018-06-04T06:20:52.117Z,100830.05
2018-06-04T06:23:19.233Z,100824.04
2018-06-04T06:25:46.338Z,100825.58
2018-06-04T06:28:13.436Z,100821.38
2018-06-04T06:30:40.554Z,100815.12
2018-06-04T06:33:07.558Z,100815.27
2018-06-04T06:35:34.575Z,100817.91
2018-06-04T06:38:01.732Z,100815.33
2018-06-04T06:40:28.889Z,100815.65
2018-06-04T06:42:55.893Z,100816.16
2018-06-04T06:45:22.917Z,100813.11
2018-06-04T06:47:50.030Z,100817.73
2018-06-04T06:50:17.052Z,100819.95
2018-06-04T06:52:44.066Z,100821.67
2018-06-04T06:55:11.127Z,100826.61
2018-06-04T06:57:38.144Z,100820.51
2018-06-04T07:00:05.404Z,100821.22
2018-06-04T07:02:32.745Z,100819.22
2018-06-04T07:04:59.826Z,100820.10
2018-06-04T07:07:26.846Z,100824.36
2018-06-04T07:09:53.855Z,100830.69
2018-06-04T07:12:20.850Z,100828.73
2018-06-04T07:14:48.369Z,100829.77
2018-06-04T07:17:15.491Z,100836.73
2018-06-04T07:19:43.105Z,100835.41
2018-06-04T07:22:10.140Z,100836.09
2018-06-04T07:24:37.199Z,100832.34
2018-06-04T07:27:04.383Z,100831.59
2018-06-04T07:29:31.480Z,100831.13
2018-06-04T07:31:58.494Z,100831.66
2018-06-04T07:34:25.500Z,100840.26
2018-06-04T07:36:52.674Z,100834.63
2018-06-04T07:39:19.994Z,100832.90
2018-06-04T07:41:47.989Z,100833.19
2018-06-04T07:44:15.101Z,100831.38
2018-06-04T07:46:42.314Z,100838.38
2018-06-04T07:49:09.335Z,100835.39
2018-06-04T07:51:36.666Z,100834.38
2018-06-04T07:54:03.795Z,100838.38
2018-06-04T07:56:30.934Z,100846.31
2018-06-04T07:58:57.977Z,100840.46
2018-06-04T08:01:24.986Z,100833.44
2018-06-04T08:03:52.105Z,100838.02
2018-06-04T08:06:19.283Z,100839.92
2018-06-04T08:08:46.268Z,100836.45
2018-06-04T08:11:13.380Z,100831.23
2018-06-04T08:13:40.490Z,100831.92
2018-06-04T08:16:07.558Z,100839.94
2018-06-04T08:18:34.581Z,100847.67
2018-06-04T08:21:01.598Z,100838.47
2018-06-04T08:23:28.811Z,100847.22
2018-06-04T08:25:55.836Z,100847.51
2018-06-04T08:28:22.998Z,100846.69
2018-06-04T08:30:50.039Z,100848.00
2018-06-04T08:33:17.165Z,100852.60
2018-06-04T08:35:44.180Z,100848.31
2018-06-04T08:38:11.204Z,100850.39
2018-06-04T08:40:38.326Z,100843.82
2018-06-04T08:43:05.346Z,100843.82
2018-06-04T08:45:32.370Z,100837.84
2018-06-04T08:47:59.485Z,100839.11
2018-06-04T08:50:26.507Z,100835.89
2018-06-04T08:52:53.518Z,100842.99
2018-06-04T08:55:20.567Z,100841.11
2018-06-04T08:57:47.573Z,100834.58
2018-06-04T09:00:14.595Z,100836.47
2018-06-04T09:02:41.737Z,100836.47
2018-06-04T09:05:08.751Z,100837.98
2018-06-04T09:07:35.775Z,100835.98
2018-06-04T09:10:02.927Z,100832.94
2018-06-04T09:12:29.966Z,100833.20
2018-06-04T09:14:57.076Z,100835.81
2018-06-04T09:17:24.578Z,100830.37
2018-06-04T09:19:51.679Z,100826.00
2018-06-04T09:22:18.715Z,100832.80
2018-06-04T09:24:45.770Z,100834.46
2018-06-04T09:27:12.786Z,100830.25
2018-06-04T09:29:39.850Z,100833.48
2018-06-04T09:32:06.880Z,100831.06
2018-06-04T09:34:33.903Z,100827.59
2018-06-04T09:37:00.915Z,100830.37
2018-06-04T09:39:28.042Z,100830.66
2018-06-04T09:41:55.073Z,100831.64
2018-06-04T09:44:22.109Z,100833.97
2018-06-04T09:46:49.234Z,100832.09
2018-06-04T09:49:16.326Z,100830.05
2018-06-04T09:51:43.445Z,100832.80
2018-06-04T09:54:10.680Z,100822.60
2018-06-04T09:56:37.693Z,100818.80
2018-06-04T09:59:05.025Z,100813.89
2018-06-04T10:01:32.145Z,100817.48
2018-06-04T10:03:59.324Z,100827.39
2018-06-04T10:06:26.334Z,100822.89
2018-06-04T10:08:53.446Z,100826.69
2018-06-04T10:11:20.468Z,100823.54
2018-06-04T10:13:47.564Z,100814.71
2018-06-04T10:16:14.693Z,100819.20
2018-06-04T10:18:41.917Z,100814.02
2018-06-04T10:21:08.953Z,100811.48
2018-06-04T10:23:35.998Z,100812.86
2018-06-04T10:26:03.122Z,100820.14
2018-06-04T10:28:30.555Z,100819.78
2018-06-04T10:30:57.584Z,100814.26
2018-06-04T10:33:24.606Z,100819.83
2018-06-04T10:35:51.811Z,100813.31
2018-06-04T10:38:18.952Z,100811.84
2018-06-04T10:40:46.130Z,100818.05
2018-06-04T10:43:13.246Z,100816.14
2018-06-04T10:45:40.306Z,100804.69
2018-06-04T10:48:07.393Z,100802.97
2018-06-04T10:50:34.565Z,100796.56
2018-06-04T10:53:01.659Z,100798.98
2018-06-04T10:55:28.795Z,100797.44
2018-06-04T10:57:55.836Z,100793.27
2018-06-04T11:00:22.871Z,100796.03
2018-06-04T11:02:50.101Z,100796.60
2018-06-04T11:05:17.198Z,100795.67
2018-06-04T11:07:44.298Z,100792.93
2018-06-04T11:10:11.334Z,100788.95
2018-06-04T11:12:38.360Z,100790.32
2018-06-04T11:15:05.796Z,100748.50
2018-06-04T11:17:32.813Z,100789.13
2018-06-04T11:19:59.863Z,100784.46
2018-06-04T11:22:27.054Z,100785.44
2018-06-04T11:24:54.082Z,100782.77
2018-06-04T11:27:21.179Z,100784.94
2018-06-04T11:29:48.182Z,100785.69
2018-06-04T11:32:15.323Z,100781.36
2018-06-04T11:34:42.502Z,100782.06
2018-06-04T11:37:09.602Z,100777.45
2018-06-04T11:39:36.753Z,100774.12
2018-06-04T11:42:03.783Z,100772.70
2018-06-04T11:44:30.988Z,100773.64
2018-06-04T11:46:58.057Z,100773.38
2018-06-04T11:49:25.149Z,100768.59
2018-06-04T11:51:52.174Z,100766.92
2018-06-04T11:54:19.267Z,100769.05
2018-06-04T11:56:46.459Z,100768.41
2018-06-04T11:59:13.561Z,100763.77
2018-06-04T12:01:40.611Z,100762.14
2018-06-04T12:04:07.633Z,100765.24
2018-06-04T12:06:34.734Z,100771.73
2018-06-04T12:09:01.854Z,100768.86
2018-06-04T12:11:28.984Z,100773.98
2018-06-04T12:13:56.157Z,100766.33
2018-06-04T12:16:23.281Z,100764.57
2018-06-04T12:18:50.309Z,100771.33
2018-06-04T12:21:17.533Z,100769.42
2018-06-04T12:23:44.555Z,100766.24
2018-06-04T12:26:11.687Z,100770.13
2018-06-04T12:28:38.701Z,100765.84
2018-06-04T12:31:05.854Z,100771.73
2018-06-04T12:33:32.917Z,100771.61
2018-06-04T12:35:59.928Z,100765.50
2018-06-04T12:38:27.035Z,100768.14
2018-06-04T12:40:54.438Z,100765.44
2018-06-04T12:43:21.484Z,100764.48
2018-06-04T12:45:48.586Z,100761.63
2018-06-04T12:48:15.719Z,100761.63
2018-06-04T12:50:42.752Z,100765.55
2018-06-04T12:53:09.777Z,100757.94
2018-06-04T12:55:36.873Z,100758.03
2018-06-04T12:58:03.949Z,100761.50
2018-06-04T13:00:30.994Z,100750.69
2018-06-04T13:02:58.013Z,100759.75
2018-06-04T13:05:25.652Z,100759.93
2018-06-04T13:07:52.676Z,100752.21
2018-06-04T13:10:19.803Z,100755.81
2018-06-04T13:12:47.007Z,100753.09
2018-06-04T13:15:14.125Z,100747.27
2018-06-04T13:17:41.140Z,100750.20
2018-06-04T13:20:08.271Z,100746.66
2018-06-04T13:22:35.381Z,100745.13
2018-06-04T13:27:36.456Z,100746.16
2018-06-04T13:30:03.649Z,100737.17
2018-06-04T13:32:30.761Z,100736.83
2018-06-04T13:34:57.812Z,100736.80
2018-06-04T13:37:24.830Z,100737.31
2018-06-04T13:39:51.948Z,100734.60
2018-06-04T13:42:18.956Z,100731.41
2018-06-04T13:44:46.057Z,100733.41
2018-06-04T13:47:13.365Z,100726.09
2018-06-04T13:49:40.544Z,100727.46
2018-06-04T13:52:07.849Z,100729.52
2018-06-04T13:54:34.969Z,100722.52
2018-06-04T13:57:01.977Z,100728.39
2018-06-04T13:59:28.988Z,100725.58
2018-06-04T14:01:56.107Z,100726.13
2018-06-04T14:04:23.131Z,100722.59
2018-06-04T14:06:50.234Z,100706.94
2018-06-04T14:09:17.270Z,100720.11
2018-06-04T14:11:44.546Z,100721.31
2018-06-04T14:14:11.557Z,100721.27
2018-06-04T14:16:38.572Z,100708.89
2018-06-04T14:19:05.738Z,100708.48
2018-06-04T14:21:32.749Z,100709.44
2018-06-04T14:23:59.851Z,100710.89
2018-06-04T14:26:26.893Z,100705.80
2018-06-04T14:28:54.010Z,100710.30
2018-06-04T14:31:21.190Z,100709.75
2018-06-04T14:33:48.350Z,100707.78
2018-06-04T14:36:15.535Z,100710.91
2018-06-04T14:38:42.645Z,100709.50
2018-06-04T14:41:09.738Z,100705.98
2018-06-04T14:43:36.740Z,100700.51
2018-06-04T14:46:03.881Z,100697.41
2018-06-04T14:48:30.934Z,100693.61
2018-06-04T14:50:57.972Z,100690.42
2018-06-04T14:53:25.025Z,100691.59
2018-06-04T14:55:52.045Z,100690.52
2018-06-04T14:58:19.233Z,100679.33
2018-06-04T15:00:46.426Z,100683.88
2018-06-04T15:03:13.545Z,100688.99
2018-06-04T15:05:40.721Z,100689.81
2018-06-04T15:08:07.733Z,100687.81
2018-06-04T15:10:34.861Z,100687.41
2018-06-04T15:13:01.884Z,100685.69
2018-06-04T15:15:28.985Z,100684.86
2018-06-04T15:17:56.209Z,100681.20
2018-06-04T15:20:23.246Z,100685.46
2018-06-04T15:22:50.271Z,100677.45
2018-06-04T15:25:17.405Z,100679.23
2018-06-04T15:27:44.454Z,100678.81
2018-06-04T15:30:11.476Z,100680.63
2018-06-04T15:32:38.644Z,100673.42
2018-06-04T15:35:05.663Z,100672.53
2018-06-04T15:37:32.771Z,100672.84
2018-06-04T15:39:59.894Z,100666.20
2018-06-04T15:42:27.084Z,100672.98
2018-06-04T15:44:54.113Z,100674.98
2018-06-04T15:47:21.265Z,100669.25
2018-06-04T15:49:48.464Z,100672.55
2018-06-04T15:52:15.489Z,100674.16
2018-06-04T15:54:42.524Z,100679.55
2018-06-04T15:57:09.630Z,100673.78
2018-06-04T15:59:36.668Z,100671.59
2018-06-04T16:02:03.843Z,100667.85
2018-06-04T16:04:30.934Z,100669.22
2018-06-04T16:06:58.127Z,100671.69
2018-06-04T16:09:25.240Z,100668.95
2018-06-04T16:11:52.343Z,100662.36
2018-06-04T16:14:19.438Z,100660.54
2018-06-04T16:16:46.921Z,100655.56
2018-06-04T16:19:14.112Z,100658.14
2018-06-04T16:21:41.212Z,100655.67
2018-06-04T16:24:08.487Z,100654.81
2018-06-04T16:26:35.723Z,100663.84
2018-06-04T16:29:02.834Z,100659.23
2018-06-04T16:31:29.873Z,100653.34
2018-06-04T16:33:56.977Z,100657.35
2018-06-04T16:36:24.125Z,100655.08
2018-06-04T16:38:51.274Z,100657.66
2018-06-04T16:41:18.314Z,100655.63
2018-06-04T16:43:45.562Z,100643.90
2018-06-04T16:46:12.784Z,100649.29
2018-06-04T16:48:39.897Z,100647.33
2018-06-04T16:51:07.014Z,100647.50
2018-06-04T16:53:34.064Z,100646.64
2018-06-04T16:56:01.103Z,100639.20
2018-06-04T16:58:28.161Z,100638.88
2018-06-04T17:00:55.177Z,100631.05
2018-06-04T17:03:22.281Z,100638.63
2018-06-04T17:05:49.385Z,100631.98
2018-06-04T17:08:16.443Z,100625.98
2018-06-04T17:10:43.544Z,100623.95
2018-06-04T17:13:10.835Z,100624.88
2018-06-04T17:15:37.925Z,100629.34
2018-06-04T17:18:04.982Z,100625.09
2018-06-04T17:20:32.110Z,100629.41
2018-06-04T17:22:59.135Z,100625.13
2018-06-04T17:25:26.155Z,100617.52
2018-06-04T17:27:53.190Z,100622.08
2018-06-04T17:30:21.517Z,100618.95
2018-06-04T17:32:48.568Z,100621.62
2018-06-04T17:35:15.593Z,100616.86
2018-06-04T17:37:42.760Z,100619.16
2018-06-04T17:40:09.916Z,100612.81
2018-06-04T17:42:37.095Z,100613.02
2018-06-04T17:45:06.010Z,100621.12
2018-06-04T17:47:33.207Z,100619.74
2018-06-04T17:50:00.397Z,100619.19
2018-06-04T17:52:27.502Z,100620.98
2018-06-04T17:54:54.526Z,100613.56
2018-06-04T17:57:21.660Z,100615.50
2018-06-04T17:59:48.825Z,100615.95
2018-06-04T18:02:15.841Z,100611.79
2018-06-04T18:04:43.021Z,100611.89
2018-06-04T18:07:10.113Z,100604.38
2018-06-04T18:09:37.197Z,100608.66
2018-06-04T18:12:04.240Z,100608.88
2018-06-04T18:14:31.264Z,100606.56
2018-06-04T18:16:58.449Z,100609.23
2018-06-04T18:19:25.582Z,100603.09
2018-06-04T18:21:52.682Z,100597.79
2018-06-04T18:24:19.865Z,100595.84
2018-06-04T18:26:46.980Z,100596.07
2018-06-04T18:29:14.078Z,100598.89
2018-06-04T18:31:41.477Z,100610.28
2018-06-04T18:34:08.589Z,100604.24
2018-06-04T18:36:35.790Z,100607.82
2018-06-04T18:39:04.738Z,100607.52
2018-06-04T18:41:31.866Z,100606.55
2018-06-04T18:43:58.976Z,100610.84
2018-06-04T18:48:59.945Z,100605.77
2018-06-04T18:51:26.971Z,100609.72
2018-06-04T18:53:54.099Z,100604.84
2018-06-04T18:56:21.203Z,100605.84
2018-06-04T18:58:48.322Z,100597.23
2018-06-04T19:01:15.454Z,100602.72
2018-06-04T19:03:42.565Z,100592.13
2018-06-04T19:06:09.565Z,100601.44
2018-06-04T19:08:36.665Z,100605.66
2018-06-04T19:11:03.710Z,100601.78
2018-06-04T19:13:30.864Z,100603.61
2018-06-04T19:15:57.901Z,100600.22
2018-06-04T19:18:24.958Z,100595.59
2018-06-04T19:20:52.066Z,100599.44
2018-06-04T19:23:19.445Z,100598.98
2018-06-04T19:25:46.534Z,100598.12
2018-06-04T19:28:13.634Z,100598.42
2018-06-04T19:30:40.656Z,100600.03
2018-06-04T19:33:07.998Z,100602.78
2018-06-04T19:35:35.004Z,100607.74
2018-06-04T19:38:02.161Z,100611.09
2018-06-04T19:40:29.325Z,100602.67
2018-06-04T19:42:56.531Z,100599.39
2018-06-04T19:45:23.585Z,100600.14
2018-06-04T19:47:50.721Z,100607.18
2018-06-04T19:50:17.751Z,100604.16
2018-06-04T19:52:44.930Z,100601.33
2018-06-04T19:55:11.945Z,100603.27
2018-06-04T19:57:39.085Z,100607.17
2018-06-04T20:00:06.121Z,100605.91
2018-06-04T20:02:33.248Z,100605.91
2018-06-04T20:05:00.338Z,100608.34
2018-06-04T20:07:27.436Z,100608.55
2018-06-04T20:09:54.505Z,100610.27
2018-06-04T20:12:21.632Z,100612.55
2018-06-04T20:14:48.766Z,100618.21
2018-06-04T20:17:15.809Z,100616.54
2018-06-04T20:19:42.822Z,100607.17
2018-06-04T20:22:09.913Z,100611.31
2018-06-04T20:24:37.174Z,100611.56
2018-06-04T20:27:04.445Z,100610.86
2018-06-04T20:29:31.463Z,100610.79
2018-06-04T20:31:58.502Z,100608.33
2018-06-04T20:34:25.617Z,100602.56
2018-06-04T20:36:52.795Z,100607.06
2018-06-04T20:39:20.011Z,100598.30
2018-06-04T20:41:47.127Z,100605.54
2018-06-04T20:44:14.225Z,100603.94
2018-06-04T20:46:41.322Z,100611.77
2018-06-04T20:49:08.433Z,100614.41
2018-06-04T20:51:35.452Z,100612.58
2018-06-04T20:54:02.511Z,100614.09
2018-06-04T20:56:29.630Z,100616.49
2018-06-04T20:58:56.814Z,100614.18
2018-06-04T21:01:23.909Z,100614.88
2018-06-04T21:03:51.011Z,100616.97
2018-06-04T21:06:18.052Z,100615.23
2018-06-04T21:08:45.189Z,100611.02
2018-06-04T21:11:12.374Z,100618.58
2018-06-04T21:13:39.422Z,100618.62
2018-06-04T21:16:06.464Z,100625.25
2018-06-04T21:18:33.570Z,100621.16
2018-06-04T21:21:00.705Z,100619.33
2018-06-04T21:23:27.791Z,100618.62
2018-06-04T21:25:54.785Z,100614.11
2018-06-04T21:28:21.917Z,100609.75
2018-06-04T21:30:49.889Z,100609.41
2018-06-04T21:33:16.927Z,100615.34
2018-06-04T21:35:43.966Z,100614.70
2018-06-04T21:38:11.100Z,100622.59
2018-06-04T21:40:38.480Z,100618.27
2018-06-04T21:43:05.515Z,100620.63
2018-06-04T21:45:32.546Z,100622.38
2018-06-04T21:47:59.581Z,100627.33
2018-06-04T21:50:26.644Z,100624.33
2018-06-04T21:52:53.669Z,100622.88
2018-06-04T21:55:20.723Z,100629.50
2018-06-04T21:57:47.826Z,100629.17
2018-06-04T22:00:14.937Z,100634.45
2018-06-04T22:02:41.946Z,100636.20
2018-06-04T22:05:09.041Z,100637.48
2018-06-04T22:07:36.051Z,100635.34
2018-06-04T22:10:03.214Z,100633.20
2018-06-04T22:12:30.265Z,100632.80
2018-06-04T22:14:57.289Z,100635.81
2018-06-04T22:17:24.394Z,100632.64
2018-06-04T22:19:51.633Z,100638.48
2018-06-04T22:22:18.831Z,100643.63
2018-06-04T22:24:45.914Z,100648.62
2018-06-04T22:27:13.114Z,100646.27
2018-06-04T22:29:40.478Z,100646.44
2018-06-04T22:32:07.593Z,100647.25
2018-06-04T22:34:34.712Z,100647.41
2018-06-04T22:37:01.727Z,100650.43
2018-06-04T22:39:28.840Z,100642.53
2018-06-04T22:41:56.057Z,100646.16
2018-06-04T22:44:23.070Z,100641.83
2018-06-04T22:46:50.076Z,100642.23
2018-06-04T22:49:17.117Z,100645.30
2018-06-04T22:51:44.242Z,100647.47
2018-06-04T22:54:11.246Z,100647.30
2018-06-04T22:56:38.354Z,100637.13
2018-06-04T22:59:05.464Z,100646.20
2018-06-04T23:01:32.481Z,100644.16
2018-06-04T23:03:59.990Z,100648.86
2018-06-04T23:06:27.004Z,100645.18
2018-06-04T23:08:54.134Z,100645.34
2018-06-04T23:11:21.159Z,100647.30
2018-06-04T23:13:48.261Z,100650.13
2018-06-04T23:16:15.286Z,100655.19
2018-06-04T23:18:42.391Z,100649.80
2018-06-04T23:21:09.429Z,100661.08
2018-06-04T23:23:36.437Z,100653.40
2018-06-04T23:26:03.465Z,100659.56
2018-06-04T23:28:30.581Z,100657.77
2018-06-04T23:30:57.593Z,100657.06
2018-06-04T23:33:24.781Z,100658.97
2018-06-04T23:35:51.970Z,100657.37
2018-06-04T23:38:19.153Z,100660.27
2018-06-04T23:40:46.152Z,100654.95
2018-06-04T23:43:13.206Z,100666.05
2018-06-04T23:45:40.538Z,100662.31
2018-06-04T23:48:07.556Z,100661.96
2018-06-04T23:50:34.710Z,100660.53
2018-06-04T23:53:01.810Z,100671.27
2018-06-04T23:55:28.920Z,100667.13
2018-06-04T23:57:56.100Z,100677.30
